createdAt,value
2022-10-14T00:02:51.945Z,2.63
2022-10-14T00:05:57.327Z,2.97
2022-10-14T00:09:07.337Z,2.85
2022-10-14T00:12:15.623Z,2.95
2022-10-14T00:15:22.897Z,3.10
2022-10-14T00:18:28.342Z,2.65
2022-10-14T00:21:37.589Z,2.88
2022-10-14T00:28:03.828Z,2.58
2022-10-14T00:31:09.320Z,2.97
2022-10-14T00:34:17.070Z,2.78
2022-10-14T00:37:26.571Z,2.78
2022-10-14T00:40:34.298Z,2.90
2022-10-14T00:47:10.793Z,2.78
2022-10-14T00:50:19.911Z,2.83
2022-10-14T00:53:27.524Z,2.75
2022-10-14T00:56:35.297Z,3.30
2022-10-14T00:59:43.038Z,2.85
2022-10-14T01:02:53.161Z,3.03
2022-10-14T01:09:21.269Z,2.95
2022-10-14T01:12:36.324Z,2.67
2022-10-14T01:15:52.484Z,2.92
2022-10-14T01:19:19.350Z,2.90
2022-10-14T01:22:31.658Z,2.53
2022-10-14T01:25:54.225Z,2.72
2022-10-14T01:29:17.976Z,3.00
2022-10-14T01:32:31.587Z,2.40
2022-10-14T01:35:53.898Z,2.95
2022-10-14T01:39:06.355Z,3.17
2022-10-14T01:42:17.460Z,2.97
2022-10-14T01:45:57.001Z,3.22
2022-10-14T01:49:11.990Z,3.10
2022-10-14T01:52:24.938Z,2.78
2022-10-14T01:55:38.285Z,2.95
2022-10-14T01:58:47.294Z,3.05
2022-10-14T02:01:54.820Z,3.20
2022-10-14T02:05:06.178Z,2.67
2022-10-14T02:08:17.043Z,3.15
2022-10-14T02:11:25.581Z,3.15
2022-10-14T02:14:56.070Z,3.00
2022-10-14T02:18:14.659Z,2.90
2022-10-14T02:21:29.852Z,2.80
2022-10-14T02:24:41.284Z,2.85
2022-10-14T02:27:50.754Z,3.20
2022-10-14T02:31:16.956Z,2.80
2022-10-14T02:34:27.607Z,3.17
2022-10-14T02:37:38.545Z,3.00
2022-10-14T02:40:48.885Z,3.10
2022-10-14T02:43:56.361Z,3.05
2022-10-14T02:47:04.252Z,2.97
2022-10-14T02:50:12.821Z,3.00
2022-10-14T02:53:23.058Z,2.97
2022-10-14T02:56:30.511Z,2.80
2022-10-14T02:59:37.892Z,3.08
2022-10-14T03:02:45.259Z,2.88
2022-10-14T03:05:52.498Z,2.85
2022-10-14T03:09:02.538Z,3.03
2022-10-14T03:15:17.753Z,3.00
2022-10-14T03:18:25.141Z,3.13
2022-10-14T03:21:32.456Z,2.95
2022-10-14T03:24:42.693Z,2.55
2022-10-14T03:27:50.123Z,3.20
2022-10-14T03:30:57.430Z,2.92
2022-10-14T03:34:04.744Z,3.03
2022-10-14T03:37:12.097Z,3.40
2022-10-14T03:40:22.419Z,3.00
2022-10-14T03:43:29.949Z,2.97
2022-10-14T03:46:37.392Z,2.92
2022-10-14T03:49:44.813Z,2.90
2022-10-14T03:52:55.570Z,3.00
2022-10-14T03:56:06.068Z,3.25
2022-10-14T03:59:16.042Z,3.13
2022-10-14T04:05:34.162Z,3.10
2022-10-14T04:08:41.510Z,2.72
2022-10-14T04:11:49.821Z,2.65
2022-10-14T04:14:57.473Z,2.90
2022-10-14T04:18:04.803Z,3.20
2022-10-14T04:21:15.036Z,3.30
2022-10-14T04:24:22.297Z,2.70
2022-10-14T04:27:32.498Z,2.88
2022-10-14T04:30:39.891Z,2.72
2022-10-14T04:33:47.178Z,3.05
2022-10-14T04:36:55.905Z,2.70
2022-10-14T04:40:03.678Z,2.90
2022-10-14T04:43:13.956Z,2.80
2022-10-14T04:46:21.290Z,2.63
2022-10-14T04:49:28.776Z,2.75
2022-10-14T04:52:36.059Z,2.83
2022-10-14T04:55:43.422Z,2.83
2022-10-14T04:58:53.848Z,3.05
2022-10-14T05:02:01.772Z,2.80
2022-10-14T05:05:10.221Z,2.72
2022-10-14T05:08:17.719Z,2.70
2022-10-14T05:11:25.359Z,2.50
2022-10-14T05:14:36.114Z,2.45
2022-10-14T05:17:44.900Z,2.47
2022-10-14T05:20:52.179Z,2.33
2022-10-14T05:23:59.414Z,2.75
2022-10-14T05:27:07.257Z,2.80
2022-10-14T05:30:20.974Z,2.63
2022-10-14T05:33:28.488Z,3.00
2022-10-14T05:36:36.266Z,2.70
2022-10-14T05:39:43.729Z,2.55
2022-10-14T05:42:51.121Z,2.70
2022-10-14T05:46:01.273Z,2.60
2022-10-14T05:49:08.993Z,2.67
2022-10-14T05:52:16.380Z,2.78
2022-10-14T05:55:23.969Z,2.22
2022-10-14T05:58:31.216Z,2.53
2022-10-14T06:01:43.428Z,2.63
2022-10-14T06:04:50.890Z,2.47
2022-10-14T06:07:58.404Z,2.40
2022-10-14T06:11:07.679Z,2.20
2022-10-14T06:14:15.323Z,2.43
2022-10-14T06:17:25.551Z,2.30
2022-10-14T06:20:32.957Z,2.38
2022-10-14T06:23:40.312Z,2.50
2022-10-14T06:26:48.702Z,2.42
2022-10-14T06:29:56.050Z,2.13
2022-10-14T06:33:06.076Z,2.17
2022-10-14T06:39:21.616Z,2.40
2022-10-14T06:42:30.708Z,2.20
2022-10-14T06:45:38.200Z,2.22
2022-10-14T06:48:50.437Z,2.40
2022-10-14T06:51:58.321Z,2.30
2022-10-14T06:55:03.602Z,2.53
2022-10-14T06:58:10.943Z,2.28
2022-10-14T07:01:18.465Z,2.17
2022-10-14T07:04:29.269Z,2.50
2022-10-14T07:07:36.613Z,2.15
2022-10-14T07:10:42.121Z,2.17
2022-10-14T07:13:49.630Z,2.40
2022-10-14T07:16:57.125Z,2.03
2022-10-14T07:20:07.786Z,1.90
2022-10-14T07:23:15.088Z,2.13
2022-10-14T07:26:22.480Z,2.25
2022-10-14T07:29:29.873Z,2.28
2022-10-14T07:32:39.936Z,2.00
2022-10-14T07:38:57.594Z,2.30
2022-10-14T07:42:05.067Z,1.98
2022-10-14T07:45:16.377Z,2.38
2022-10-14T07:48:32.589Z,2.00
2022-10-14T07:51:50.078Z,2.10
2022-10-14T07:54:57.545Z,2.00
2022-10-14T07:58:04.955Z,1.80
2022-10-14T08:01:12.429Z,2.03
2022-10-14T08:04:20.245Z,1.98
2022-10-14T08:07:30.392Z,2.10
2022-10-14T08:13:46.344Z,1.95
2022-10-14T08:16:54.499Z,1.85
2022-10-14T08:20:02.222Z,1.90
2022-10-14T08:23:16.146Z,1.83
2022-10-14T08:26:31.265Z,2.00
2022-10-14T08:29:38.740Z,1.80
2022-10-14T08:32:46.049Z,2.15
2022-10-14T08:35:54.306Z,1.85
2022-10-14T08:39:04.947Z,1.77
2022-10-14T08:42:25.339Z,1.80
2022-10-14T08:45:36.897Z,1.83
2022-10-14T08:48:44.676Z,2.00
2022-10-14T08:51:58.369Z,1.73
2022-10-14T08:55:22.539Z,1.60
2022-10-14T08:58:33.581Z,1.80
2022-10-14T09:01:51.305Z,1.70
2022-10-14T09:04:59.845Z,1.63
2022-10-14T09:08:08.622Z,1.98
2022-10-14T09:11:21.710Z,1.63
2022-10-14T09:14:34.381Z,1.58
2022-10-14T09:17:47.803Z,1.58
2022-10-14T09:20:56.907Z,1.38
2022-10-14T09:24:16.747Z,1.33
2022-10-14T09:27:27.280Z,1.30
2022-10-14T09:30:40.839Z,1.40
2022-10-14T09:33:48.664Z,1.20
2022-10-14T09:36:57.080Z,1.35
2022-10-14T09:40:06.193Z,1.25
2022-10-14T09:43:20.456Z,1.23
2022-10-14T09:46:27.961Z,1.25
2022-10-14T09:49:43.148Z,1.40
2022-10-14T09:52:55.507Z,1.33
2022-10-14T09:56:04.594Z,1.17
2022-10-14T09:59:22.357Z,1.10
2022-10-14T10:02:42.204Z,1.30
2022-10-14T10:09:03.135Z,1.08
2022-10-14T10:12:27.365Z,1.55
2022-10-14T10:15:37.622Z,1.45
2022-10-14T10:18:44.958Z,1.33
2022-10-14T10:21:52.350Z,1.35
2022-10-14T10:25:26.573Z,1.30
2022-10-14T10:28:34.829Z,1.30
2022-10-14T10:32:15.355Z,1.30
2022-10-14T10:35:31.302Z,1.33
2022-10-14T10:38:47.958Z,1.20
2022-10-14T10:42:06.522Z,1.20
2022-10-14T10:45:19.934Z,1.42
2022-10-14T10:48:41.448Z,1.15
2022-10-14T10:51:57.608Z,1.10
2022-10-14T10:55:13.851Z,1.10
2022-10-14T10:58:40.828Z,1.38
2022-10-14T11:01:56.742Z,1.10
2022-10-14T11:05:15.933Z,1.20
2022-10-14T11:08:49.593Z,0.98
2022-10-14T11:12:10.606Z,1.27
2022-10-14T11:15:32.723Z,1.00
2022-10-14T11:18:48.513Z,1.13
2022-10-14T11:22:07.627Z,1.10
2022-10-14T11:25:25.969Z,1.00
2022-10-14T11:28:45.044Z,1.92
2022-10-14T11:32:04.323Z,1.70
2022-10-14T11:35:25.324Z,1.70
2022-10-14T11:38:54.024Z,1.65
2022-10-14T11:42:17.196Z,1.58
2022-10-14T11:45:48.110Z,2.20
2022-10-14T11:48:59.810Z,2.17
2022-10-14T11:52:12.348Z,2.10
2022-10-14T11:55:29.139Z,2.00
2022-10-14T11:58:39.974Z,1.65
2022-10-14T12:01:48.494Z,1.95
2022-10-14T12:05:01.137Z,1.77
2022-10-14T12:08:22.366Z,1.83
2022-10-14T12:11:38.856Z,1.83
2022-10-14T12:14:48.648Z,1.88
2022-10-14T12:17:59.180Z,1.60
2022-10-14T12:21:16.278Z,1.35
2022-10-14T12:24:28.126Z,1.50
2022-10-14T12:27:40.045Z,1.83
2022-10-14T12:30:47.600Z,1.33
2022-10-14T12:34:36.300Z,1.55
2022-10-14T12:37:51.951Z,1.50
2022-10-14T12:41:27.926Z,1.65
2022-10-14T12:44:48.357Z,1.52
2022-10-14T12:48:06.409Z,1.52
2022-10-14T12:51:16.560Z,1.63
2022-10-14T12:54:24.210Z,1.50
2022-10-14T12:57:36.205Z,1.52
2022-10-14T13:00:57.936Z,1.67
2022-10-14T13:04:07.722Z,1.60
2022-10-14T13:07:40.352Z,1.55
2022-10-14T13:10:52.677Z,1.55
2022-10-14T13:14:04.365Z,1.20
2022-10-14T13:17:45.673Z,1.30
2022-10-14T13:20:55.055Z,1.20
2022-10-14T13:24:05.000Z,1.50
2022-10-14T13:30:36.187Z,1.40
2022-10-14T13:33:54.053Z,1.23
2022-10-14T13:37:13.046Z,1.30
2022-10-14T13:40:26.514Z,1.13
2022-10-14T13:43:41.434Z,1.17
2022-10-14T13:46:52.055Z,1.20
2022-10-14T13:50:02.627Z,1.35
2022-10-14T13:53:17.390Z,1.10
2022-10-14T13:56:27.747Z,1.08
2022-10-14T14:00:04.468Z,1.10
2022-10-14T14:03:17.791Z,1.20
2022-10-14T14:06:39.854Z,1.23
2022-10-14T14:10:03.740Z,1.05
2022-10-14T14:13:14.409Z,0.90
2022-10-14T14:16:25.133Z,1.45
2022-10-14T14:19:34.526Z,1.38
2022-10-14T14:22:47.307Z,1.30
2022-10-14T14:26:18.015Z,1.10
2022-10-14T14:29:25.626Z,1.05
2022-10-14T14:32:34.769Z,1.20
2022-10-14T14:35:43.203Z,0.97
2022-10-14T14:39:01.336Z,1.20
2022-10-14T14:42:11.911Z,0.93
2022-10-14T14:45:25.664Z,1.10
2022-10-14T14:48:33.900Z,0.88
2022-10-14T14:51:44.033Z,1.13
2022-10-14T14:54:54.575Z,1.15
2022-10-14T14:58:05.800Z,0.98
2022-10-14T15:01:23.333Z,1.02
2022-10-14T15:04:36.289Z,1.00
2022-10-14T15:07:46.964Z,1.05
2022-10-14T15:10:58.551Z,1.17
2022-10-14T15:14:06.028Z,0.93
2022-10-14T15:17:29.404Z,1.10
2022-10-14T15:20:39.170Z,1.30
2022-10-14T15:24:00.813Z,1.20
2022-10-14T15:27:45.754Z,1.08
2022-10-14T15:31:02.950Z,1.00
2022-10-14T15:34:21.068Z,1.20
2022-10-14T15:37:28.505Z,1.10
2022-10-14T15:40:35.919Z,1.10
2022-10-14T15:43:46.244Z,1.10
2022-10-14T15:47:09.733Z,1.63
2022-10-14T15:50:21.418Z,2.45
2022-10-14T15:53:29.782Z,2.20
2022-10-14T15:56:37.348Z,2.03
2022-10-14T15:59:48.988Z,2.20
2022-10-14T16:02:58.910Z,2.50
2022-10-14T16:09:13.344Z,2.25
2022-10-14T16:12:20.589Z,1.90
2022-10-14T16:15:36.749Z,1.70
2022-10-14T16:18:44.293Z,1.88
2022-10-14T16:21:51.875Z,1.70
2022-10-14T16:24:59.413Z,1.70
2022-10-14T16:28:10.124Z,1.65
2022-10-14T16:31:21.439Z,1.70
2022-10-14T16:34:28.872Z,1.50
2022-10-14T16:37:38.436Z,1.52
2022-10-14T16:40:46.531Z,1.40
2022-10-14T16:43:54.032Z,1.23
2022-10-14T16:47:20.300Z,1.50
2022-10-14T16:50:28.149Z,1.70
2022-10-14T16:53:45.338Z,1.20
2022-10-14T16:56:58.604Z,1.00
2022-10-14T17:00:06.360Z,1.27
2022-10-14T17:03:16.725Z,1.27
2022-10-14T17:06:24.358Z,1.20
2022-10-14T17:09:31.926Z,1.10
2022-10-14T17:12:39.780Z,1.00
2022-10-14T17:15:47.306Z,0.95
2022-10-14T17:18:58.096Z,1.08
2022-10-14T17:22:05.710Z,0.95
2022-10-14T17:25:13.461Z,1.10
2022-10-14T17:28:20.973Z,1.00
2022-10-14T17:31:29.250Z,1.00
2022-10-14T17:34:40.618Z,1.10
2022-10-14T17:37:48.085Z,1.10
2022-10-14T17:40:55.616Z,0.80
2022-10-14T17:44:04.437Z,1.00
2022-10-14T17:47:11.842Z,1.05
2022-10-14T17:50:23.058Z,0.73
2022-10-14T17:53:30.746Z,0.85
2022-10-14T17:56:40.326Z,1.00
2022-10-14T17:59:48.050Z,0.80
2022-10-14T18:02:55.509Z,0.98
2022-10-14T18:06:12.230Z,0.98
2022-10-14T18:09:17.613Z,0.88
2022-10-14T18:12:25.076Z,0.65
2022-10-14T18:15:36.635Z,1.05
2022-10-14T18:18:46.209Z,0.90
2022-10-14T18:21:56.591Z,0.70
2022-10-14T18:25:07.082Z,0.65
2022-10-14T18:28:14.618Z,0.80
2022-10-14T18:31:23.202Z,0.82
2022-10-14T18:34:30.490Z,0.82
2022-10-14T18:37:41.252Z,0.70
2022-10-14T18:40:50.217Z,0.80
2022-10-14T18:43:58.315Z,0.80
2022-10-14T18:47:05.974Z,0.70
2022-10-14T18:50:13.699Z,0.90
2022-10-14T18:53:24.035Z,0.70
2022-10-14T18:56:33.715Z,0.80
2022-10-14T18:59:43.515Z,0.70
2022-10-14T19:02:53.795Z,1.00
2022-10-14T19:06:01.619Z,0.90
2022-10-14T19:09:14.838Z,1.05
2022-10-14T19:12:37.929Z,0.80
2022-10-14T19:15:50.119Z,0.80
2022-10-14T19:19:04.232Z,0.75
2022-10-14T19:22:11.624Z,0.80
2022-10-14T19:25:20.881Z,1.00
2022-10-14T19:28:28.661Z,0.80
2022-10-14T19:31:38.126Z,0.80
2022-10-14T19:34:47.561Z,0.85
2022-10-14T19:37:55.046Z,0.90
2022-10-14T19:41:06.651Z,0.82
2022-10-14T19:44:14.763Z,0.90
2022-10-14T19:47:22.463Z,0.90
2022-10-14T19:50:30.133Z,1.00
2022-10-14T19:53:37.886Z,0.90
2022-10-14T19:56:49.070Z,0.80
2022-10-14T19:59:56.287Z,0.85
2022-10-14T20:03:03.763Z,0.88
2022-10-14T20:06:11.817Z,0.98
2022-10-14T20:09:19.348Z,1.00
2022-10-14T20:12:29.684Z,0.90
2022-10-14T20:15:36.967Z,1.08
2022-10-14T20:18:44.245Z,1.05
2022-10-14T20:21:52.569Z,0.90
2022-10-14T20:24:59.966Z,1.00
2022-10-14T20:28:10.459Z,1.00
2022-10-14T20:31:19.093Z,1.00
2022-10-14T20:34:26.490Z,0.90
2022-10-14T20:37:34.830Z,1.20
2022-10-14T20:40:43.072Z,1.00
2022-10-14T20:43:54.019Z,1.00
2022-10-14T20:47:01.659Z,1.13
2022-10-14T20:50:10.276Z,1.00
2022-10-14T20:53:17.790Z,1.38
2022-10-14T20:56:25.475Z,1.10
2022-10-14T20:59:36.441Z,1.10
2022-10-14T21:05:56.037Z,1.10
2022-10-14T21:09:04.031Z,1.40
2022-10-14T21:12:11.259Z,1.40
2022-10-14T21:15:21.387Z,1.05
2022-10-14T21:18:29.478Z,1.35
2022-10-14T21:21:38.856Z,1.30
2022-10-14T21:24:46.267Z,1.50
2022-10-14T21:27:53.619Z,1.10
2022-10-14T21:31:03.661Z,1.20
2022-10-14T21:34:11.448Z,1.20
2022-10-14T21:37:20.729Z,1.20
2022-10-14T21:40:28.806Z,0.98
2022-10-14T21:43:38.943Z,1.50
2022-10-14T21:50:01.874Z,1.30
2022-10-14T21:53:13.917Z,1.38
2022-10-14T21:56:24.601Z,1.20
2022-10-14T21:59:34.691Z,1.38
2022-10-14T22:02:44.781Z,1.33
2022-10-14T22:05:50.006Z,1.30
2022-10-14T22:08:59.554Z,1.42
2022-10-14T22:12:07.167Z,1.52
2022-10-14T22:15:14.594Z,1.40
2022-10-14T22:18:25.265Z,1.40
2022-10-14T22:21:34.655Z,1.50
2022-10-14T22:24:42.051Z,1.38
2022-10-14T22:27:49.422Z,1.58
2022-10-14T22:30:57.989Z,1.40
2022-10-14T22:34:09.652Z,1.20
2022-10-14T22:37:18.840Z,1.20
2022-10-14T22:40:26.207Z,1.40
2022-10-14T22:43:33.557Z,1.45
2022-10-14T22:46:42.758Z,1.60
2022-10-14T22:49:52.953Z,1.40
2022-10-14T22:53:00.270Z,1.35
2022-10-14T22:56:08.486Z,1.52
2022-10-14T22:59:15.787Z,1.40
2022-10-14T23:02:23.188Z,1.35
2022-10-14T23:05:33.449Z,1.60
2022-10-14T23:08:41.096Z,1.15
2022-10-14T23:11:48.621Z,1.20
2022-10-14T23:14:55.868Z,1.35
2022-10-14T23:18:03.121Z,1.50
2022-10-14T23:21:14.194Z,1.20
2022-10-14T23:24:21.782Z,1.35
2022-10-14T23:27:32.770Z,1.15
2022-10-14T23:30:43.011Z,1.45
2022-10-14T23:33:52.505Z,1.50
2022-10-14T23:37:02.726Z,1.40
2022-10-14T23:40:11.800Z,1.45
2022-10-14T23:43:19.558Z,1.00
2022-10-14T23:46:27.357Z,1.20
2022-10-14T23:49:34.738Z,1.45
2022-10-14T23:52:46.100Z,1.67
2022-10-14T23:55:53.796Z,1.40
2022-10-14T23:59:01.216Z,1.27
